Time;durP1;ratioP1;P1;durP2;ratioP2;P2;SDS_P1;SDS_P2;PMS_P1;PMS_P2;Temp;Humidity;BMP_temperature;BMP_pressure;BME280_temperature;BME280_humidity;BME280_pressure;Samples;Min_cycle;Max_cycle;Signal;HPM_P1;HPM_P2
2021/07/26 00:01:53;;;;;;;10.52;3.20;;;20.20;70.80;;;;;;5188243;27;27433;-58
2021/07/26 00:04:38;;;;;;;5.43;3.38;;;20.20;71.00;;;;;;5172447;27;27501;-45
2021/07/26 00:07:23;;;;;;;7.10;3.45;;;20.10;71.00;;;;;;5169230;27;27470;-47
2021/07/26 00:10:08;;;;;;;14.23;3.22;;;20.10;71.00;;;;;;5158041;27;27419;-57
2021/07/26 00:12:53;;;;;;;7.93;3.78;;;20.10;71.10;;;;;;5188576;27;27961;-59
2021/07/26 00:15:37;;;;;;;6.85;3.15;;;20.10;71.20;;;;;;5187518;27;27434;-47
2021/07/26 00:18:22;;;;;;;10.77;3.28;;;20.10;71.30;;;;;;5172285;27;27490;-59
2021/07/26 00:21:06;;;;;;;4.93;3.22;;;20.10;71.30;;;;;;5155612;27;27500;-59
2021/07/26 00:23:51;;;;;;;4.80;3.03;;;20.00;71.40;;;;;;5168730;27;27380;-59
2021/07/26 00:26:35;;;;;;;10.32;3.53;;;20.00;71.40;;;;;;5172068;27;27417;-58
2021/07/26 00:29:20;;;;;;;11.02;4.07;;;20.00;71.50;;;;;;5158134;27;27343;-59
2021/07/26 00:32:05;;;;;;;7.88;3.25;;;20.00;71.60;;;;;;5187686;27;27385;-58
2021/07/26 00:34:49;;;;;;;8.25;2.95;;;20.00;71.60;;;;;;5172009;27;27351;-57
2021/07/26 00:37:34;;;;;;;9.57;3.58;;;20.00;71.70;;;;;;5187899;27;27358;-59
2021/07/26 00:40:19;;;;;;;8.27;3.40;;;20.00;71.60;;;;;;5157213;27;27391;-58
2021/07/26 00:43:04;;;;;;;7.80;2.97;;;19.90;71.70;;;;;;5170391;27;27423;-58
2021/07/26 00:45:51;;;;;;;9.30;2.92;;;19.90;71.70;;;;;;5172369;27;27362;-57
2021/07/26 00:48:35;;;;;;;11.02;3.13;;;19.90;71.70;;;;;;5168397;27;27498;-59
2021/07/26 00:51:20;;;;;;;8.63;3.42;;;19.90;71.70;;;;;;5187429;27;27377;-56
2021/07/26 00:54:05;;;;;;;10.77;3.13;;;19.90;72.30;;;;;;5156923;27;27426;-59
2021/07/26 00:56:50;;;;;;;10.20;3.47;;;19.90;71.90;;;;;;5157331;27;27899;-59
2021/07/26 00:59:35;;;;;;;9.10;3.10;;;19.80;71.90;;;;;;5153423;27;27465;-60
2021/07/26 01:02:20;;;;;;;7.55;3.40;;;19.80;72.00;;;;;;5156981;27;27087;-45
2021/07/26 01:05:04;;;;;;;11.30;3.38;;;19.80;72.20;;;;;;5187381;27;27334;-58
2021/07/26 01:07:49;;;;;;;5.78;3.00;;;19.80;72.20;;;;;;5156966;27;27319;-59
2021/07/26 01:10:34;;;;;;;10.52;3.55;;;19.80;72.30;;;;;;5169417;27;27326;-58
2021/07/26 01:13:18;;;;;;;3.63;3.10;;;19.70;72.40;;;;;;5156953;27;27351;-58
2021/07/26 01:16:03;;;;;;;7.80;3.25;;;19.70;72.40;;;;;;5156739;27;27381;-58
2021/07/26 01:18:48;;;;;;;8.90;3.22;;;19.70;72.40;;;;;;5187188;27;27300;-58
2021/07/26 01:21:32;;;;;;;7.90;3.35;;;19.70;72.50;;;;;;5141627;27;27504;-58
2021/07/26 01:24:17;;;;;;;7.55;3.55;;;19.70;72.60;;;;;;5171433;27;27418;-59
2021/07/26 01:27:02;;;;;;;8.73;3.33;;;19.70;72.70;;;;;;5167895;27;27449;-59
2021/07/26 01:29:46;;;;;;;7.80;3.00;;;19.70;72.60;;;;;;5171399;27;27571;-58
2021/07/26 01:32:31;;;;;;;12.48;3.38;;;19.70;72.60;;;;;;5186674;27;27435;-59
2021/07/26 01:35:15;;;;;;;13.10;3.22;;;19.70;72.70;;;;;;5168326;27;27350;-59
2021/07/26 01:38:00;;;;;;;13.30;3.83;;;19.70;72.80;;;;;;5183645;27;27418;-56
2021/07/26 01:40:49;;;;;;;13.70;3.35;;;19.70;72.80;;;;;;5167735;27;27456;-59
2021/07/26 01:43:39;;;;;;;9.60;3.47;;;19.70;72.80;;;;;;5167457;27;27375;-58
2021/07/26 01:46:48;;;;;;;14.73;3.33;;;19.60;72.80;;;;;;5157840;27;27450;-56
2021/07/26 01:49:42;;;;;;;6.25;3.38;;;19.60;72.90;;;;;;5186919;27;27406;-57
2021/07/26 01:52:27;;;;;;;14.02;3.38;;;19.60;72.90;;;;;;5167761;27;27829;-59
2021/07/26 01:55:11;;;;;;;9.02;3.13;;;19.60;72.90;;;;;;5171001;27;27486;-58
2021/07/26 01:57:57;;;;;;;12.00;4.03;;;19.60;73.00;;;;;;5152749;27;27426;-60
2021/07/26 02:00:41;;;;;;;9.15;3.55;;;19.60;73.00;;;;;;5171039;27;27419;-58
2021/07/26 02:03:26;;;;;;;18.70;3.17;;;19.60;73.10;;;;;;5186389;27;27844;-59
2021/07/26 02:06:13;;;;;;;14.13;3.22;;;19.60;73.10;;;;;;5187729;27;27500;-44
2021/07/26 02:09:01;;;;;;;14.40;3.90;;;19.60;73.00;;;;;;5190361;27;27393;-57
2021/07/26 02:11:46;;;;;;;14.02;3.55;;;19.60;73.00;;;;;;5160068;27;27409;-58
2021/07/26 02:14:30;;;;;;;15.27;3.03;;;19.60;73.00;;;;;;5156326;27;28042;-56
2021/07/26 02:17:15;;;;;;;20.33;4.00;;;19.60;73.00;;;;;;5159594;27;27391;-58
2021/07/26 02:20:00;;;;;;;26.45;4.18;;;19.60;72.90;;;;;;5171344;27;27412;-58
2021/07/26 02:22:44;;;;;;;13.13;3.70;;;19.60;72.80;;;;;;5155732;27;26930;-59
2021/07/26 02:25:29;;;;;;;21.92;4.97;;;19.60;72.90;;;;;;5156647;27;27980;-57
2021/07/26 02:28:13;;;;;;;18.02;3.70;;;19.60;72.90;;;;;;5190713;27;27342;-58
2021/07/26 02:30:57;;;;;;;12.70;4.40;;;19.50;72.90;;;;;;5189521;27;27339;-59
2021/07/26 02:33:42;;;;;;;12.27;4.13;;;19.50;72.90;;;;;;5174257;27;27401;-59
2021/07/26 02:36:26;;;;;;;24.13;3.38;;;19.50;73.00;;;;;;5189792;27;28003;-57
2021/07/26 02:39:10;;;;;;;15.00;4.00;;;19.50;73.10;;;;;;5189786;27;27483;-59
2021/07/26 02:41:55;;;;;;;15.30;3.90;;;19.50;73.10;;;;;;5159779;27;27480;-60
2021/07/26 02:44:39;;;;;;;10.88;3.10;;;19.50;73.20;;;;;;5189505;27;27468;-59
2021/07/26 02:47:24;;;;;;;9.75;3.65;;;19.50;73.30;;;;;;5189696;27;27505;-47
2021/07/26 02:50:08;;;;;;;9.85;3.42;;;19.50;73.30;;;;;;5173933;27;27418;-46
2021/07/26 02:52:53;;;;;;;19.10;4.35;;;19.40;73.30;;;;;;5189581;27;27468;-59
2021/07/26 02:55:39;;;;;;;9.68;3.53;;;19.40;73.30;;;;;;5173766;27;27394;-58
2021/07/26 02:58:24;;;;;;;12.10;3.50;;;19.40;73.40;;;;;;5174638;27;27465;-59
2021/07/26 03:01:10;;;;;;;9.57;3.38;;;19.50;73.50;;;;;;5173797;27;27433;-46
2021/07/26 03:03:55;;;;;;;8.32;3.30;;;19.40;73.60;;;;;;5189405;27;27463;-56
2021/07/26 03:06:39;;;;;;;11.90;3.88;;;19.40;73.70;;;;;;5189646;27;27457;-58
2021/07/26 03:09:24;;;;;;;5.93;3.50;;;19.40;73.70;;;;;;5185863;27;27394;-60
2021/07/26 03:12:10;;;;;;;12.25;3.65;;;19.50;73.80;;;;;;5172820;27;27484;-60
2021/07/26 03:14:54;;;;;;;6.45;3.20;;;19.40;73.70;;;;;;5173631;27;27496;-60
2021/07/26 03:17:39;;;;;;;8.73;3.30;;;19.40;73.80;;;;;;5170419;27;27402;-57
2021/07/26 03:20:23;;;;;;;8.52;3.30;;;19.40;73.80;;;;;;5188808;27;27467;-58
2021/07/26 03:23:09;;;;;;;10.75;3.33;;;19.40;73.80;;;;;;5155359;27;27554;-60
2021/07/26 03:25:54;;;;;;;8.15;3.05;;;19.40;73.80;;;;;;5188475;27;27379;-58
2021/07/26 03:28:38;;;;;;;9.02;3.30;;;19.40;73.80;;;;;;5170257;27;27433;-59
2021/07/26 03:31:23;;;;;;;7.50;3.50;;;19.40;73.80;;;;;;5158818;27;27476;-57
2021/07/26 03:34:07;;;;;;;9.82;3.35;;;19.40;73.80;;;;;;5173607;27;27497;-58
2021/07/26 03:36:52;;;;;;;10.68;3.35;;;19.40;73.80;;;;;;5140251;27;27387;-58
2021/07/26 03:39:37;;;;;;;9.25;3.17;;;19.40;73.80;;;;;;5155230;27;27392;-59
2021/07/26 03:42:21;;;;;;;7.18;3.67;;;19.40;73.80;;;;;;5172558;27;27966;-58
2021/07/26 03:45:06;;;;;;;9.02;3.72;;;19.40;73.90;;;;;;5189395;27;27363;-59
2021/07/26 03:47:51;;;;;;;8.93;2.85;;;19.40;74.00;;;;;;5173761;27;27395;-58
2021/07/26 03:50:36;;;;;;;8.82;3.20;;;19.40;74.00;;;;;;5173033;27;27380;-59
2021/07/26 03:53:20;;;;;;;11.05;3.30;;;19.40;73.90;;;;;;5154511;27;27989;-59
2021/07/26 03:56:05;;;;;;;12.52;3.80;;;19.40;74.00;;;;;;5185144;27;27387;-55
2021/07/26 03:58:49;;;;;;;6.88;3.20;;;19.40;74.00;;;;;;5188690;27;27339;-58
2021/07/26 04:01:34;;;;;;;13.45;3.08;;;19.40;74.80;;;;;;5188285;27;26939;-45
2021/07/26 04:04:18;;;;;;;10.50;4.53;;;19.40;74.00;;;;;;5189113;27;27333;-59
2021/07/26 04:07:09;;;;;;;20.58;4.80;;;19.40;74.20;;;;;;5147871;27;27329;-58
2021/07/26 04:10:00;;;;;;;13.50;3.55;;;19.40;74.20;;;;;;5169367;27;27460;-60
2021/07/26 04:12:49;;;;;;;8.90;3.05;;;19.40;74.20;;;;;;5188373;27;27401;-59
2021/07/26 04:15:34;;;;;;;13.43;3.58;;;19.40;74.30;;;;;;5169440;27;27926;-59
2021/07/26 04:18:19;;;;;;;16.98;4.65;;;19.40;74.30;;;;;;5189023;27;27387;-59
2021/07/26 04:21:08;;;;;;;4.45;3.28;;;19.40;74.20;;;;;;5170871;27;27452;-59
2021/07/26 04:23:53;;;;;;;6.18;3.22;;;19.40;74.20;;;;;;5172417;27;27348;-59
2021/07/26 04:26:37;;;;;;;5.78;3.58;;;19.40;74.20;;;;;;5187936;27;27420;-59
2021/07/26 04:29:22;;;;;;;4.35;3.45;;;19.40;74.00;;;;;;5171836;27;27463;-58
2021/07/26 04:32:10;;;;;;;10.48;3.80;;;19.40;74.00;;;;;;5188228;27;27491;-58
2021/07/26 04:34:59;;;;;;;6.60;3.35;;;19.40;74.00;;;;;;5155009;27;27361;-58
2021/07/26 04:37:44;;;;;;;8.95;3.80;;;19.40;74.00;;;;;;5169448;27;27874;-58
2021/07/26 04:40:29;;;;;;;8.20;3.38;;;19.40;73.90;;;;;;5154129;27;27475;-59
2021/07/26 04:43:14;;;;;;;11.77;3.63;;;19.40;73.90;;;;;;5187866;27;27397;-58
2021/07/26 04:45:59;;;;;;;19.10;5.05;;;19.50;73.90;;;;;;5172061;27;27430;-59
2021/07/26 04:48:44;;;;;;;6.55;2.90;;;19.50;73.90;;;;;;5168249;27;27983;-58
2021/07/26 04:51:29;;;;;;;17.65;3.97;;;19.50;73.80;;;;;;5168214;27;27415;-58
2021/07/26 04:54:13;;;;;;;11.30;2.85;;;19.50;73.80;;;;;;5187493;27;27475;-59
2021/07/26 04:56:58;;;;;;;11.20;3.40;;;19.50;73.80;;;;;;5153727;27;27438;-58
2021/07/26 04:59:42;;;;;;;10.55;3.38;;;19.50;73.60;;;;;;5187359;27;27313;-59
2021/07/26 05:02:27;;;;;;;8.65;3.72;;;19.50;73.70;;;;;;5156835;27;27599;-59
2021/07/26 05:05:12;;;;;;;10.55;3.42;;;19.50;73.70;;;;;;5171716;27;27339;-56
2021/07/26 05:07:56;;;;;;;9.25;3.40;;;19.50;73.70;;;;;;5153853;27;27409;-58
2021/07/26 05:10:45;;;;;;;9.02;3.65;;;19.60;73.80;;;;;;5157458;27;27368;-59
2021/07/26 05:13:30;;;;;;;9.50;3.53;;;19.60;73.80;;;;;;5187572;27;27422;-48
2021/07/26 05:16:14;;;;;;;9.30;3.20;;;19.60;73.90;;;;;;5170572;27;27488;-56
2021/07/26 05:18:59;;;;;;;7.60;3.17;;;19.60;73.80;;;;;;5171410;27;27485;-58
2021/07/26 05:21:43;;;;;;;8.88;3.30;;;19.60;73.90;;;;;;5185979;27;27854;-58
2021/07/26 05:24:28;;;;;;;9.32;3.60;;;19.70;73.90;;;;;;5156793;27;27419;-59
2021/07/26 05:27:13;;;;;;;3.95;3.08;;;19.70;73.80;;;;;;5171437;27;27438;-58
2021/07/26 05:29:57;;;;;;;4.78;3.33;;;19.70;73.80;;;;;;5187163;27;27390;-59
2021/07/26 05:32:42;;;;;;;8.95;3.10;;;19.80;73.90;;;;;;5138527;27;27347;-59
2021/07/26 05:35:30;;;;;;;8.77;3.17;;;19.80;73.90;;;;;;5153815;27;27427;-56
2021/07/26 05:38:15;;;;;;;11.50;3.63;;;19.90;73.90;;;;;;5186995;27;27464;-60
2021/07/26 05:41:00;;;;;;;12.05;3.08;;;19.90;73.90;;;;;;5154247;27;27532;-59
2021/07/26 05:43:45;;;;;;;12.57;3.38;;;19.90;73.80;;;;;;5190577;27;27496;-59
2021/07/26 05:46:30;;;;;;;6.25;3.33;;;20.00;74.00;;;;;;5171814;27;27443;-58
2021/07/26 05:49:15;;;;;;;8.43;3.38;;;20.00;73.90;;;;;;5171605;27;27398;-60
2021/07/26 05:51:59;;;;;;;5.43;3.50;;;20.10;74.00;;;;;;5190452;27;27406;-56
2021/07/26 05:54:44;;;;;;;4.28;3.08;;;20.20;74.00;;;;;;5156627;27;27401;-59
2021/07/26 05:57:32;;;;;;;8.82;3.35;;;20.20;74.00;;;;;;5157114;27;27561;-59
2021/07/26 06:00:24;;;;;;;10.93;4.80;;;20.30;73.90;;;;;;5190946;27;27411;-59
2021/07/26 06:03:11;;;;;;;7.80;4.28;;;20.40;74.00;;;;;;5154062;27;26950;-59
2021/07/26 06:05:56;;;;;;;6.05;3.00;;;20.40;73.80;;;;;;5190658;27;27397;-59
2021/07/26 06:08:40;;;;;;;6.80;3.30;;;20.50;73.80;;;;;;5174407;27;27640;-59
2021/07/26 06:11:25;;;;;;;9.15;3.38;;;20.60;73.70;;;;;;5174654;27;27412;-59
2021/07/26 06:14:12;;;;;;;10.60;3.33;;;20.70;73.50;;;;;;5174681;27;27421;-60
2021/07/26 06:16:59;;;;;;;6.50;3.35;;;20.90;73.30;;;;;;5171632;27;27430;-56
2021/07/26 06:19:44;;;;;;;7.88;3.42;;;21.00;73.30;;;;;;5171048;27;27567;-59
2021/07/26 06:22:29;;;;;;;7.18;3.55;;;21.20;72.90;;;;;;5174081;27;27379;-59
2021/07/26 06:25:14;;;;;;;6.70;3.85;;;21.50;72.30;;;;;;5170850;27;27385;-59
2021/07/26 06:27:58;;;;;;;8.98;3.65;;;21.80;72.00;;;;;;5174690;27;27344;-59
2021/07/26 06:30:43;;;;;;;5.15;3.72;;;22.00;71.60;;;;;;5159457;27;27421;-60
2021/07/26 06:33:27;;;;;;;7.82;4.95;;;22.30;71.10;;;;;;5190254;27;27511;-59
2021/07/26 06:36:12;;;;;;;8.35;3.47;;;22.60;70.80;;;;;;5156686;27;27433;-59
2021/07/26 06:38:56;;;;;;;5.20;3.53;;;23.00;70.10;;;;;;5187356;27;27410;-60
2021/07/26 06:41:41;;;;;;;12.70;3.90;;;23.40;69.30;;;;;;5191548;27;27488;-46
2021/07/26 06:44:26;;;;;;;6.10;3.28;;;23.80;68.30;;;;;;5175501;27;27405;-59
2021/07/26 06:47:11;;;;;;;10.70;3.92;;;24.20;67.50;;;;;;5175413;27;27407;-59
2021/07/26 06:49:56;;;;;;;8.48;3.58;;;24.60;66.70;;;;;;5175220;27;27471;-58
2021/07/26 06:52:41;;;;;;;4.00;3.55;;;24.80;65.40;;;;;;5156401;27;27570;-60
2021/07/26 06:55:25;;;;;;;7.72;3.72;;;25.20;64.80;;;;;;5175449;27;27418;-60
2021/07/26 06:58:10;;;;;;;6.97;3.67;;;25.60;63.90;;;;;;5175279;27;27385;-57
2021/07/26 07:00:54;;;;;;;9.05;3.35;;;25.90;64.00;;;;;;5190537;27;27432;-59
2021/07/26 07:03:39;;;;;;;6.20;3.00;;;26.40;62.20;;;;;;5174815;27;27455;-45
2021/07/26 07:06:24;;;;;;;3.72;3.00;;;26.80;61.00;;;;;;5160682;27;27470;-46
2021/07/26 07:09:09;;;;;;;7.93;3.58;;;27.30;59.80;;;;;;5190296;27;27394;-59
2021/07/26 07:11:53;;;;;;;8.50;3.67;;;27.70;59.10;;;;;;5190034;27;27460;-59
2021/07/26 07:14:38;;;;;;;8.38;2.92;;;28.00;58.20;;;;;;5171459;27;27504;-58
2021/07/26 07:17:23;;;;;;;4.65;3.45;;;28.30;57.40;;;;;;5174941;27;27686;-59
2021/07/26 07:20:08;;;;;;;7.70;3.55;;;28.70;56.70;;;;;;5174248;27;27413;-60
2021/07/26 07:22:53;;;;;;;7.38;2.85;;;29.10;56.20;;;;;;5189494;27;27896;-46
2021/07/26 07:25:37;;;;;;;7.00;3.42;;;29.50;55.20;;;;;;5156045;27;27566;-60
2021/07/26 07:28:22;;;;;;;8.82;2.88;;;29.80;54.50;;;;;;5171110;27;27312;-58
2021/07/26 07:31:07;;;;;;;9.75;4.10;;;30.00;53.60;;;;;;5186480;27;27324;-59
2021/07/26 07:33:51;;;;;;;8.27;3.60;;;30.30;53.20;;;;;;5174142;27;27911;-59
2021/07/26 07:36:36;;;;;;;8.38;3.58;;;30.70;52.70;;;;;;5159738;27;27341;-58
2021/07/26 07:39:21;;;;;;;8.98;3.40;;;30.90;51.90;;;;;;5174330;27;27369;-59
2021/07/26 07:42:05;;;;;;;5.20;2.85;;;31.10;51.10;;;;;;5189284;27;27385;-60
2021/07/26 07:44:50;;;;;;;5.60;3.13;;;31.10;51.10;;;;;;5173928;27;27410;-58
2021/07/26 07:47:35;;;;;;;6.70;3.30;;;31.20;51.50;;;;;;5170901;27;27307;-59
2021/07/26 07:50:20;;;;;;;14.18;3.17;;;31.20;51.30;;;;;;5159774;27;27414;-59
2021/07/26 07:53:05;;;;;;;5.70;3.28;;;31.10;50.90;;;;;;5170882;27;27420;-59
2021/07/26 07:55:53;;;;;;;5.70;2.60;;;31.10;51.30;;;;;;5189643;27;27360;-57
2021/07/26 07:58:38;;;;;;;9.52;3.47;;;30.90;51.00;;;;;;5171412;27;27644;-59
2021/07/26 08:01:30;;;;;;;9.48;3.40;;;30.90;51.10;;;;;;5190105;27;27487;-59
2021/07/26 08:04:15;;;;;;;4.10;3.10;;;30.80;51.90;;;;;;5173247;27;27426;-59
2021/07/26 08:07:00;;;;;;;6.45;3.30;;;30.80;51.70;;;;;;5174353;27;27953;-59
2021/07/26 08:09:45;;;;;;;6.00;3.28;;;30.80;51.40;;;;;;5155779;27;27323;-59
2021/07/26 08:12:32;;;;;;;4.53;3.10;;;30.70;51.40;;;;;;5170513;27;27327;-61
2021/07/26 08:15:17;;;;;;;9.07;3.53;;;30.70;51.30;;;;;;5155834;27;27359;-59
2021/07/26 08:18:03;;;;;;;6.55;3.28;;;30.60;51.40;;;;;;5170037;27;27840;-58
2021/07/26 08:20:47;;;;;;;10.68;3.47;;;30.60;51.60;;;;;;5171224;27;27504;-59
2021/07/26 08:23:32;;;;;;;9.43;3.30;;;30.60;52.00;;;;;;5173159;27;27412;-59
2021/07/26 08:26:17;;;;;;;3.17;2.88;;;30.70;51.70;;;;;;5170001;27;27366;-59
2021/07/26 08:29:02;;;;;;;5.80;3.20;;;30.90;51.70;;;;;;5173972;27;27328;-59
2021/07/26 08:31:47;;;;;;;6.82;2.90;;;31.00;51.30;;;;;;5170107;27;27384;-59
2021/07/26 08:34:33;;;;;;;6.07;2.80;;;31.50;51.30;;;;;;5155662;27;27328;-59
2021/07/26 08:37:30;;;;;;;5.82;2.80;;;32.10;50.90;;;;;;5169551;27;27403;-60
2021/07/26 08:40:14;;;;;;;5.53;2.97;;;32.80;49.60;;;;;;5173278;27;27413;-49
2021/07/26 08:43:21;;;;;;;5.05;3.28;;;33.40;49.10;;;;;;5190999;27;27602;-51
2021/07/26 08:46:06;;;;;;;4.25;2.88;;;34.10;47.80;;;;;;5109595;27;27503;-58
2021/07/26 08:48:50;;;;;;;5.80;2.83;;;34.70;46.90;;;;;;5110071;27;27580;-60
2021/07/26 08:51:35;;;;;;;4.65;2.67;;;35.20;45.90;;;;;;5124159;27;27863;-60
2021/07/26 08:54:20;;;;;;;4.03;3.00;;;35.70;44.50;;;;;;5109857;27;27458;-60
2021/07/26 08:57:05;;;;;;;4.13;2.92;;;36.00;44.10;;;;;;5124132;27;27523;-59
2021/07/26 08:59:49;;;;;;;9.02;2.97;;;36.20;43.60;;;;;;5124130;27;27544;-59
2021/07/26 09:02:34;;;;;;;3.13;2.55;;;36.40;43.40;;;;;;5109328;27;27576;-59
2021/07/26 09:05:19;;;;;;;4.80;2.47;;;36.60;43.10;;;;;;5109133;27;27528;-60
2021/07/26 09:08:04;;;;;;;6.65;3.05;;;36.90;43.30;;;;;;5123976;27;27474;-60
2021/07/26 09:10:48;;;;;;;3.50;2.75;;;37.30;43.10;;;;;;5153659;27;27450;-51
2021/07/26 09:13:34;;;;;;;5.45;3.00;;;37.70;42.00;;;;;;5169315;27;27401;-53
2021/07/26 09:16:19;;;;;;;3.42;2.63;;;38.20;39.70;;;;;;5184619;27;27536;-59
2021/07/26 09:19:07;;;;;;;4.18;2.53;;;38.60;39.80;;;;;;5169005;27;27503;-60
2021/07/26 09:21:52;;;;;;;4.88;2.90;;;39.10;39.10;;;;;;5187420;27;27589;-60
2021/07/26 09:24:37;;;;;;;4.80;2.17;;;39.50;38.30;;;;;;5187936;27;27413;-60
2021/07/26 09:27:22;;;;;;;4.50;2.33;;;39.80;38.10;;;;;;5172532;27;27509;-59
2021/07/26 09:30:13;;;;;;;4.93;2.15;;;40.10;37.80;;;;;;5168920;27;27495;-59
2021/07/26 09:32:58;;;;;;;3.25;2.47;;;40.50;36.70;;;;;;5188049;27;27356;-59
2021/07/26 09:35:44;;;;;;;2.95;2.63;;;40.80;35.50;;;;;;5188684;27;27495;-59
2021/07/26 09:38:28;;;;;;;6.25;2.17;;;41.20;34.90;;;;;;5188292;27;27414;-58
2021/07/26 09:41:13;;;;;;;2.65;2.45;;;41.60;34.70;;;;;;5154469;27;27326;-58
2021/07/26 09:44:05;;;;;;;6.97;2.08;;;42.00;32.20;;;;;;5172693;27;27440;-58
2021/07/26 09:46:50;;;;;;;3.15;2.00;;;42.30;33.20;;;;;;5187811;27;28213;-58
2021/07/26 09:49:38;;;;;;;3.03;2.13;;;42.70;33.00;;;;;;5172430;27;27347;-58
2021/07/26 09:52:23;;;;;;;2.47;2.13;;;43.20;30.70;;;;;;5187882;27;27370;-58
2021/07/26 09:55:08;;;;;;;1.88;1.77;;;43.40;29.80;;;;;;5154653;27;27385;-58
2021/07/26 09:57:55;;;;;;;2.28;2.05;;;43.90;31.10;;;;;;5172325;27;27384;-59
2021/07/26 10:00:40;;;;;;;2.90;2.30;;;44.10;28.80;;;;;;5157374;27;27540;-59
2021/07/26 10:03:25;;;;;;;1.92;1.70;;;44.30;28.50;;;;;;5188560;27;27467;-46
2021/07/26 10:06:10;;;;;;;3.42;1.73;;;44.60;28.10;;;;;;5139399;27;27470;-58
2021/07/26 10:08:56;;;;;;;2.47;1.90;;;44.80;28.10;;;;;;5171888;27;27394;-58
2021/07/26 10:11:44;;;;;;;2.40;1.92;;;45.10;28.00;;;;;;5168412;27;27467;-58
2021/07/26 10:14:29;;;;;;;4.95;1.63;;;45.40;27.60;;;;;;5186894;27;27373;-59
2021/07/26 10:17:13;;;;;;;2.70;2.03;;;45.70;26.90;;;;;;5171816;27;27371;-58
2021/07/26 10:19:58;;;;;;;1.90;1.80;;;45.90;27.10;;;;;;5171147;27;27369;-58
2021/07/26 10:22:43;;;;;;;2.67;1.80;;;46.30;27.40;;;;;;5171381;27;27435;-59
2021/07/26 10:25:44;;;;;;;3.20;1.73;;;46.30;25.60;;;;;;5157015;27;27364;-57
2021/07/26 10:28:43;;;;;;;1.80;1.50;;;46.40;25.70;;;;;;5186859;27;27398;-59
2021/07/26 10:31:28;;;;;;;2.35;1.80;;;46.10;23.70;;;;;;5175555;27;27860;-50
2021/07/26 10:34:17;;;;;;;2.33;1.95;;;46.30;25.40;;;;;;5191056;27;27417;-57
2021/07/26 10:37:02;;;;;;;2.33;2.08;;;46.70;25.60;;;;;;5172156;27;27386;-57
2021/07/26 10:40:28;;;;;;;2.17;1.80;;;47.10;26.30;;;;;;5175351;27;27370;-58
2021/07/26 10:43:15;;;;;;;2.60;1.98;;;47.40;26.00;;;;;;5084255;28;27688;-59
2021/07/26 10:46:00;;;;;;;2.20;2.00;;;47.50;24.30;;;;;;5071441;28;27440;-58
2021/07/26 10:48:51;;;;;;;2.65;1.70;;;47.50;24.80;;;;;;5070940;28;27534;-59
2021/07/26 10:51:40;;;;;;;2.70;2.30;;;47.60;23.90;;;;;;5085305;28;27378;-58
2021/07/26 10:54:31;;;;;;;1.83;1.73;;;47.50;23.50;;;;;;5085225;28;27917;-58
2021/07/26 10:57:55;;;;;;;2.10;1.90;;;47.70;23.70;;;;;;5085098;28;27364;-58
2021/07/26 11:00:40;;;;;;;2.05;1.85;;;47.50;22.90;;;;;;5085019;28;27356;-58
2021/07/26 11:03:54;;;;;;;2.55;1.90;;;47.80;23.30;;;;;;5067739;28;27460;-58
2021/07/26 11:06:41;;;;;;;2.28;1.85;;;47.70;23.40;;;;;;5068511;28;27423;-58
2021/07/26 11:09:32;;;;;;;2.58;2.38;;;47.60;22.90;;;;;;5069774;28;27343;-59
2021/07/26 11:12:52;;;;;;;3.15;2.00;;;47.10;22.60;;;;;;5070948;28;27514;-59
2021/07/26 11:15:50;;;;;;;3.83;2.25;;;46.90;23.00;;;;;;5154757;27;27317;-59
2021/07/26 11:18:41;;;;;;;3.50;2.30;;;46.50;23.00;;;;;;5171267;27;27949;-56
2021/07/26 11:21:35;;;;;;;3.25;2.15;;;45.70;23.60;;;;;;5174808;27;27371;-58
2021/07/26 11:24:39;;;;;;;4.20;2.10;;;45.30;23.80;;;;;;5160847;27;27328;-59
2021/07/26 11:27:33;;;;;;;2.42;2.03;;;44.70;24.00;;;;;;5190455;27;27384;-59
2021/07/26 11:30:20;;;;;;;2.92;2.20;;;44.20;25.10;;;;;;5171022;27;27969;-59
2021/07/26 11:33:05;;;;;;;2.85;2.08;;;43.60;25.50;;;;;;5160052;27;27423;-60
2021/07/26 11:35:49;;;;;;;2.80;2.38;;;42.90;26.20;;;;;;5156176;27;27389;-60
2021/07/26 11:38:56;;;;;;;2.85;2.40;;;42.30;26.70;;;;;;5170696;27;27405;-60
2021/07/26 11:41:49;;;;;;;4.25;2.10;;;41.70;28.10;;;;;;5173766;27;27960;-60
2021/07/26 11:44:34;;;;;;;2.22;2.03;;;41.20;29.10;;;;;;5189481;27;27497;-57
2021/07/26 11:47:29;;;;;;;3.58;2.50;;;40.60;29.90;;;;;;5155752;27;26981;-59
2021/07/26 11:50:20;;;;;;;2.72;2.10;;;40.00;29.90;;;;;;5189846;27;27375;-46
2021/07/26 11:53:05;;;;;;;2.22;2.03;;;39.50;31.10;;;;;;5155563;27;27851;-59
2021/07/26 11:55:50;;;;;;;3.00;2.15;;;38.90;31.50;;;;;;5189287;27;27470;-60
2021/07/26 11:58:35;;;;;;;2.53;2.33;;;38.50;32.60;;;;;;5170473;27;27411;-60
2021/07/26 12:01:20;;;;;;;3.03;2.50;;;38.00;33.20;;;;;;5189104;27;27455;-59
2021/07/26 12:04:05;;;;;;;3.72;2.40;;;37.60;33.90;;;;;;5173319;27;27876;-59
2021/07/26 12:06:57;;;;;;;2.30;1.98;;;37.10;34.50;;;;;;5159533;27;27427;-60
2021/07/26 12:09:49;;;;;;;2.38;2.17;;;36.70;34.90;;;;;;5155830;27;27319;-56
2021/07/26 12:12:38;;;;;;;2.88;2.40;;;36.30;35.30;;;;;;5155449;27;27372;-59
2021/07/26 12:15:27;;;;;;;3.55;2.95;;;35.90;36.00;;;;;;5141201;27;27879;-59
2021/07/26 12:18:16;;;;;;;3.97;2.38;;;35.60;36.80;;;;;;5185633;27;27457;-59
2021/07/26 12:21:01;;;;;;;2.38;1.98;;;35.20;37.50;;;;;;5151457;27;27356;-59
2021/07/26 12:23:46;;;;;;;3.90;2.40;;;34.90;38.30;;;;;;5163695;27;27301;-60
2021/07/26 12:26:31;;;;;;;4.93;2.00;;;34.50;38.90;;;;;;5163794;27;27370;-59
2021/07/26 12:29:16;;;;;;;2.90;2.50;;;34.30;39.30;;;;;;5152823;27;27473;-59
2021/07/26 12:32:05;;;;;;;4.07;2.60;;;34.00;40.00;;;;;;5120616;27;27329;-59
2021/07/26 12:35:12;;;;;;;2.95;2.63;;;33.70;40.60;;;;;;5167281;27;27430;-58
2021/07/26 12:38:17;;;;;;;2.95;2.33;;;33.40;41.20;;;;;;5148812;27;27904;-58
2021/07/26 12:41:03;;;;;;;2.75;2.22;;;33.10;41.90;;;;;;5166962;27;27514;-59
2021/07/26 12:43:49;;;;;;;4.05;2.58;;;32.80;42.60;;;;;;5164481;27;27375;-59
2021/07/26 12:46:34;;;;;;;2.50;2.20;;;32.50;43.50;;;;;;5148492;27;27375;-59
2021/07/26 12:49:21;;;;;;;3.38;2.47;;;32.30;44.30;;;;;;5137068;27;27437;-58
2021/07/26 12:52:05;;;;;;;2.88;2.60;;;32.10;44.60;;;;;;5166489;27;27463;-60
2021/07/26 12:54:50;;;;;;;2.90;2.40;;;31.80;45.20;;;;;;5111640;27;27305;-57
2021/07/26 12:57:35;;;;;;;2.65;2.45;;;31.60;45.80;;;;;;5152229;27;27405;-58
2021/07/26 13:00:20;;;;;;;4.63;2.28;;;31.40;46.30;;;;;;5152196;27;27413;-59
2021/07/26 13:03:11;;;;;;;2.95;2.70;;;31.20;46.80;;;;;;5167426;27;27421;-58
2021/07/26 13:05:56;;;;;;;3.40;2.30;;;31.10;47.20;;;;;;5153107;27;27450;-58
2021/07/26 13:08:41;;;;;;;4.63;2.78;;;31.10;47.50;;;;;;5119418;27;27415;-58
2021/07/26 13:11:26;;;;;;;2.72;2.35;;;31.10;47.70;;;;;;5167090;27;27455;-54
2021/07/26 13:14:10;;;;;;;2.63;2.38;;;31.20;47.70;;;;;;5167034;27;27422;-59
2021/07/26 13:16:55;;;;;;;2.55;2.35;;;31.20;47.90;;;;;;5151932;27;27401;-57
2021/07/26 13:19:39;;;;;;;4.18;2.13;;;31.30;48.20;;;;;;5167290;27;27403;-49
2021/07/26 13:22:24;;;;;;;4.25;2.60;;;31.30;48.30;;;;;;5172131;27;27492;-58
2021/07/26 13:25:09;;;;;;;2.50;2.28;;;31.60;47.60;;;;;;5172214;27;27430;-58
2021/07/26 13:27:54;;;;;;;2.72;2.45;;;31.90;47.90;;;;;;5172126;27;27475;-55
2021/07/26 13:30:39;;;;;;;2.65;2.15;;;32.10;47.40;;;;;;5158368;27;27441;-49
2021/07/26 13:33:24;;;;;;;2.58;2.33;;;32.40;46.40;;;;;;5158073;27;27463;-58
2021/07/26 13:36:08;;;;;;;2.72;2.30;;;32.70;47.10;;;;;;5169641;27;27166;-58
2021/07/26 13:38:53;;;;;;;4.35;2.42;;;32.90;46.30;;;;;;5158525;27;27343;-59
2021/07/26 13:41:38;;;;;;;2.42;2.13;;;33.10;45.90;;;;;;5153925;27;27326;-59
2021/07/26 13:44:23;;;;;;;3.03;2.40;;;33.10;45.30;;;;;;5187801;27;27377;-59
2021/07/26 13:47:08;;;;;;;3.00;2.40;;;33.20;44.50;;;;;;5139492;27;27327;-59
2021/07/26 13:49:53;;;;;;;2.90;2.17;;;33.20;44.60;;;;;;5187976;27;26886;-57
2021/07/26 13:52:39;;;;;;;2.47;2.28;;;33.20;44.70;;;;;;5172163;27;27378;-59
2021/07/26 13:55:23;;;;;;;2.53;2.33;;;33.20;44.20;;;;;;5187862;27;27844;-59
2021/07/26 13:58:08;;;;;;;4.70;2.03;;;33.20;44.00;;;;;;5171073;27;27468;-59
2021/07/26 14:00:56;;;;;;;4.53;2.40;;;33.20;44.10;;;;;;5172499;27;27408;-56
2021/07/26 14:03:40;;;;;;;4.25;2.55;;;33.10;44.40;;;;;;5175844;27;27467;-57
2021/07/26 14:06:26;;;;;;;5.30;2.65;;;33.00;44.20;;;;;;5191791;27;27405;-57
2021/07/26 14:09:11;;;;;;;3.95;2.30;;;33.00;44.60;;;;;;5175785;27;27477;-57
2021/07/26 14:11:57;;;;;;;5.70;2.92;;;32.90;45.30;;;;;;5172428;27;27460;-55
2021/07/26 14:14:42;;;;;;;4.78;2.60;;;32.80;45.70;;;;;;5191319;27;27475;-57
2021/07/26 14:17:26;;;;;;;2.88;2.20;;;32.80;45.80;;;;;;5191750;27;27463;-56
2021/07/26 14:20:12;;;;;;;5.15;2.10;;;32.80;46.50;;;;;;5143001;27;27497;-57
2021/07/26 14:22:56;;;;;;;3.05;2.38;;;32.70;46.70;;;;;;5157726;27;27457;-57
2021/07/26 14:25:42;;;;;;;3.55;2.40;;;32.60;47.10;;;;;;5174849;27;27429;-56